Time;durP1;ratioP1;P1;durP2;ratioP2;P2;SDS_P1;SDS_P2;PMS_P1;PMS_P2;Temp;Humidity;BMP_temperature;BMP_pressure;BME280_temperature;BME280_humidity;BME280_pressure;Samples;Min_cycle;Max_cycle;Signal;HPM_P1;HPM_P2
2022/09/25 00:00:33;;;;;;;38.25;21.65;;;;;;;;;;5039223;28;20123;-78
2022/09/25 00:02:59;;;;;;;41.42;23.15;;;;;;;;;;5043699;28;20532;-77
2022/09/25 00:05:24;;;;;;;32.97;21.08;;;;;;;;;;5038874;28;20021;-78
2022/09/25 00:07:50;;;;;;;36.80;21.88;;;;;;;;;;5037917;28;20377;-78
2022/09/25 00:10:16;;;;;;;37.08;21.88;;;;;;;;;;5025664;28;20055;-79
2022/09/25 00:12:41;;;;;;;38.58;21.73;;;;;;;;;;5033084;28;20041;-78
2022/09/25 00:15:07;;;;;;;35.90;21.48;;;;;;;;;;5037596;28;20028;-78
2022/09/25 00:17:33;;;;;;;34.20;21.20;;;;;;;;;;5042040;28;20551;-79
2022/09/25 00:19:59;;;;;;;39.97;22.10;;;;;;;;;;5030299;28;20472;-78
2022/09/25 00:22:26;;;;;;;39.78;20.92;;;;;;;;;;5041752;28;20428;-77
2022/09/25 00:24:52;;;;;;;41.78;22.65;;;;;;;;;;5038418;28;20035;-78
2022/09/25 00:27:18;;;;;;;36.80;22.88;;;;;;;;;;5038462;28;20018;-77
2022/09/25 00:29:44;;;;;;;37.55;22.98;;;;;;;;;;5041668;28;20025;-76
2022/09/25 00:32:11;;;;;;;44.70;24.30;;;;;;;;;;5039823;28;20459;-77
2022/09/25 00:34:38;;;;;;;40.90;24.05;;;;;;;;;;5037793;28;20029;-77
2022/09/25 00:37:03;;;;;;;45.50;23.15;;;;;;;;;;5043176;28;20029;-78
2022/09/25 00:39:30;;;;;;;43.05;23.23;;;;;;;;;;5034756;28;20058;-79
2022/09/25 00:41:56;;;;;;;36.55;23.17;;;;;;;;;;5025189;28;20827;-76
2022/09/25 00:44:46;;;;;;;45.83;27.50;;;;;;;;;;5023509;28;20053;-76
2022/09/25 00:47:16;;;;;;;42.05;24.50;;;;;;;;;;5039875;28;20030;-78
2022/09/25 00:49:43;;;;;;;41.20;23.35;;;;;;;;;;5023248;28;20441;-77
2022/09/25 00:52:14;;;;;;;41.40;24.08;;;;;;;;;;5021394;28;20105;-77
2022/09/25 00:54:46;;;;;;;41.67;24.33;;;;;;;;;;5033482;28;20032;-77
2022/09/25 00:57:16;;;;;;;43.60;24.10;;;;;;;;;;5036850;28;20088;-77
2022/09/25 00:59:49;;;;;;;42.17;22.88;;;;;;;;;;5036527;28;20224;-76
2022/09/25 01:02:32;;;;;;;35.90;22.30;;;;;;;;;;5032831;28;20481;-78
2022/09/25 01:05:02;;;;;;;38.35;23.85;;;;;;;;;;5017593;28;20482;-75
2022/09/25 01:07:28;;;;;;;42.35;23.23;;;;;;;;;;5023321;28;20044;-77
2022/09/25 01:10:09;;;;;;;41.35;22.10;;;;;;;;;;5017310;28;20040;-76
2022/09/25 01:12:38;;;;;;;41.30;23.45;;;;;;;;;;5019878;28;20033;-76
2022/09/25 01:15:10;;;;;;;39.30;22.55;;;;;;;;;;5031902;28;20080;-77
2022/09/25 01:17:59;;;;;;;41.00;23.38;;;;;;;;;;5020894;28;20018;-77
2022/09/25 01:20:58;;;;;;;46.58;24.75;;;;;;;;;;5009670;28;20144;-77
2022/09/25 01:23:47;;;;;;;38.65;21.65;;;;;;;;;;5031104;28;20072;-78
2022/09/25 01:26:21;;;;;;;40.13;23.48;;;;;;;;;;5039432;28;20084;-77
2022/09/25 01:29:03;;;;;;;38.17;22.55;;;;;;;;;;5040123;28;20056;-78
2022/09/25 01:31:41;;;;;;;39.67;23.00;;;;;;;;;;5040515;28;20068;-79
2022/09/25 01:34:21;;;;;;;38.75;22.80;;;;;;;;;;5023855;28;20021;-78
2022/09/25 01:36:56;;;;;;;37.60;22.58;;;;;;;;;;5017535;28;20030;-78
2022/09/25 01:39:28;;;;;;;38.00;22.05;;;;;;;;;;5036710;28;20237;-77
2022/09/25 01:42:09;;;;;;;38.00;22.15;;;;;;;;;;5019610;28;20451;-78
2022/09/25 01:44:42;;;;;;;42.10;23.58;;;;;;;;;;5018597;28;20084;-79
2022/09/25 01:47:25;;;;;;;40.30;21.98;;;;;;;;;;5023678;28;20156;-77
2022/09/25 01:49:59;;;;;;;35.33;21.50;;;;;;;;;;5013696;28;20393;-77
2022/09/25 01:52:34;;;;;;;37.33;20.83;;;;;;;;;;5023422;28;20502;-77
2022/09/25 01:55:26;;;;;;;31.80;19.50;;;;;;;;;;5020657;28;20541;-77
2022/09/25 01:58:07;;;;;;;35.20;20.48;;;;;;;;;;5038985;28;20051;-77
2022/09/25 02:00:36;;;;;;;36.00;20.77;;;;;;;;;;5038679;28;20108;-78
2022/09/25 02:03:14;;;;;;;32.10;19.38;;;;;;;;;;5015147;28;20105;-79
2022/09/25 02:05:48;;;;;;;36.25;19.98;;;;;;;;;;5036233;28;20446;-79
2022/09/25 02:08:22;;;;;;;29.15;18.77;;;;;;;;;;5018987;28;20033;-79
2022/09/25 02:10:54;;;;;;;34.85;20.17;;;;;;;;;;5039906;28;20033;-79
2022/09/25 02:13:22;;;;;;;31.88;19.35;;;;;;;;;;5033233;28;20038;-78
2022/09/25 02:15:55;;;;;;;33.90;19.48;;;;;;;;;;5045525;28;20118;-79
2022/09/25 02:21:12;;;;;;;33.60;18.20;;;;;;;;;;5017173;28;20560;-78
2022/09/25 02:24:24;;;;;;;29.25;18.13;;;;;;;;;;5031906;28;20523;-79
2022/09/25 02:26:49;;;;;;;30.48;17.77;;;;;;;;;;4968822;28;20030;-77
2022/09/25 02:29:16;;;;;;;33.30;19.88;;;;;;;;;;5002098;28;20401;-78
2022/09/25 02:32:03;;;;;;;31.23;18.98;;;;;;;;;;5025772;28;20556;-78
2022/09/25 02:34:30;;;;;;;32.83;19.52;;;;;;;;;;5023447;28;20053;-78
2022/09/25 02:36:56;;;;;;;31.55;18.77;;;;;;;;;;5016375;28;20036;-78
2022/09/25 02:39:25;;;;;;;29.08;19.02;;;;;;;;;;5040909;28;20346;-78
2022/09/25 02:41:59;;;;;;;28.50;18.77;;;;;;;;;;5042069;28;20112;-78
2022/09/25 02:44:40;;;;;;;35.53;19.27;;;;;;;;;;5019005;28;20025;-78
2022/09/25 02:47:23;;;;;;;38.42;19.65;;;;;;;;;;5038140;28;20186;-77
2022/09/25 02:50:09;;;;;;;31.83;19.42;;;;;;;;;;5041417;28;20024;-78
2022/09/25 02:52:53;;;;;;;37.20;18.83;;;;;;;;;;5045600;28;20021;-78
2022/09/25 02:55:38;;;;;;;33.17;19.23;;;;;;;;;;5055512;28;20028;-78
2022/09/25 02:58:17;;;;;;;38.35;20.35;;;;;;;;;;5043976;28;20097;-78
2022/09/25 03:00:45;;;;;;;31.90;18.50;;;;;;;;;;5048954;28;20033;-77
2022/09/25 03:03:14;;;;;;;32.92;19.05;;;;;;;;;;5046208;28;20021;-78
2022/09/25 03:05:40;;;;;;;31.35;19.27;;;;;;;;;;5024670;28;20060;-78
2022/09/25 03:10:50;;;;;;;30.90;18.27;;;;;;;;;;5042852;28;20073;-77
2022/09/25 03:13:19;;;;;;;33.90;20.00;;;;;;;;;;5046360;28;20469;-78
2022/09/25 03:15:53;;;;;;;31.10;18.77;;;;;;;;;;5041676;28;20029;-77
2022/09/25 03:18:18;;;;;;;30.33;19.67;;;;;;;;;;5038086;28;20491;-78
2022/09/25 03:20:44;;;;;;;33.00;19.80;;;;;;;;;;5040157;28;20112;-77
2022/09/25 03:23:10;;;;;;;30.25;18.95;;;;;;;;;;5053613;28;20025;-77
2022/09/25 03:25:37;;;;;;;31.27;18.58;;;;;;;;;;5046262;28;20627;-77
2022/09/25 03:28:07;;;;;;;33.03;19.58;;;;;;;;;;5049132;28;20036;-77
2022/09/25 03:30:32;;;;;;;30.42;18.55;;;;;;;;;;5042561;28;20037;-78
2022/09/25 03:32:58;;;;;;;32.30;18.60;;;;;;;;;;5036139;28;20413;-77
2022/09/25 03:35:23;;;;;;;30.65;17.40;;;;;;;;;;5051117;28;20037;-77
2022/09/25 03:37:49;;;;;;;32.70;18.75;;;;;;;;;;5047973;28;20679;-76
2022/09/25 03:40:15;;;;;;;29.48;18.40;;;;;;;;;;5043246;28;20021;-78
2022/09/25 03:42:42;;;;;;;32.95;18.48;;;;;;;;;;5049379;28;20024;-78
2022/09/25 03:45:10;;;;;;;30.70;18.80;;;;;;;;;;5051972;28;20049;-78
2022/09/25 03:47:35;;;;;;;34.60;20.10;;;;;;;;;;5018601;28;20033;-79
2022/09/25 03:50:01;;;;;;;31.20;18.58;;;;;;;;;;5041358;28;20087;-78
2022/09/25 03:52:26;;;;;;;32.00;19.25;;;;;;;;;;5040410;28;20045;-80
2022/09/25 03:54:52;;;;;;;30.13;18.42;;;;;;;;;;5040478;28;20029;-78
2022/09/25 03:57:17;;;;;;;32.00;20.17;;;;;;;;;;5046958;28;20052;-79
2022/09/25 03:59:43;;;;;;;34.78;19.60;;;;;;;;;;5050424;28;20025;-79
2022/09/25 04:02:09;;;;;;;37.00;20.08;;;;;;;;;;5051553;28;20029;-79
2022/09/25 04:04:36;;;;;;;39.38;20.30;;;;;;;;;;5041796;28;20020;-79
2022/09/25 04:07:02;;;;;;;35.55;18.63;;;;;;;;;;5044305;28;20131;-79
2022/09/25 04:09:27;;;;;;;38.05;19.90;;;;;;;;;;5041866;28;20037;-78
2022/09/25 04:11:55;;;;;;;33.25;19.27;;;;;;;;;;5025066;28;20083;-78
2022/09/25 04:14:20;;;;;;;39.92;20.17;;;;;;;;;;5042087;28;20104;-79
2022/09/25 04:16:46;;;;;;;34.28;21.13;;;;;;;;;;5042475;28;20124;-79
2022/09/25 04:19:12;;;;;;;37.72;19.65;;;;;;;;;;5052746;28;20149;-80
2022/09/25 04:21:37;;;;;;;35.10;21.42;;;;;;;;;;5046088;28;20029;-80
2022/09/25 04:26:50;;;;;;;37.65;19.30;;;;;;;;;;5044961;28;20125;-80
2022/09/25 04:29:16;;;;;;;32.70;19.63;;;;;;;;;;5052347;28;20037;-79
2022/09/25 04:31:41;;;;;;;28.83;18.55;;;;;;;;;;5045821;28;20132;-79
2022/09/25 04:34:07;;;;;;;33.60;20.48;;;;;;;;;;5036781;28;20071;-79
2022/09/25 04:36:32;;;;;;;34.50;20.42;;;;;;;;;;5020887;28;20064;-79
2022/09/25 04:38:58;;;;;;;36.13;21.23;;;;;;;;;;5044197;28;20139;-79
2022/09/25 04:41:23;;;;;;;32.78;19.25;;;;;;;;;;5037708;28;20049;-78
2022/09/25 04:43:49;;;;;;;36.20;20.52;;;;;;;;;;5038148;28;20558;-79
2022/09/25 04:46:15;;;;;;;34.63;20.45;;;;;;;;;;5042075;28;20671;-78
2022/09/25 04:48:43;;;;;;;35.05;20.52;;;;;;;;;;5038082;28;20087;-78
2022/09/25 04:51:09;;;;;;;34.45;20.17;;;;;;;;;;5049367;28;20040;-77
2022/09/25 04:53:35;;;;;;;36.05;20.17;;;;;;;;;;5038509;28;20042;-77
2022/09/25 04:56:04;;;;;;;32.40;19.13;;;;;;;;;;5043430;28;20496;-78
2022/09/25 04:58:29;;;;;;;31.73;19.83;;;;;;;;;;5043685;28;20028;-77
2022/09/25 05:00:55;;;;;;;34.35;19.42;;;;;;;;;;5033401;28;20163;-77
2022/09/25 05:03:20;;;;;;;35.33;20.90;;;;;;;;;;5037433;28;20029;-78
2022/09/25 05:05:46;;;;;;;34.22;18.92;;;;;;;;;;5044461;28;20467;-77
2022/09/25 05:08:11;;;;;;;30.60;18.05;;;;;;;;;;5032596;28;20041;-77
2022/09/25 05:10:40;;;;;;;32.92;18.90;;;;;;;;;;5036045;28;20029;-78
2022/09/25 05:13:08;;;;;;;30.45;18.90;;;;;;;;;;5035991;28;20033;-77
2022/09/25 05:15:34;;;;;;;31.77;19.25;;;;;;;;;;5043396;28;20041;-79
2022/09/25 05:18:15;;;;;;;30.17;19.55;;;;;;;;;;5016093;28;20167;-79
2022/09/25 05:20:40;;;;;;;28.80;17.60;;;;;;;;;;5049657;28;20036;-79
2022/09/25 05:23:06;;;;;;;34.60;18.50;;;;;;;;;;5036607;28;20164;-79
2022/09/25 05:25:31;;;;;;;38.42;21.48;;;;;;;;;;5042429;28;20028;-79
2022/09/25 05:27:59;;;;;;;30.33;19.20;;;;;;;;;;5037682;28;20037;-79
2022/09/25 05:30:26;;;;;;;31.20;17.92;;;;;;;;;;5042761;28;20032;-79
2022/09/25 05:32:53;;;;;;;27.58;18.55;;;;;;;;;;5030804;28;20050;-79
2022/09/25 05:35:20;;;;;;;36.90;19.60;;;;;;;;;;5032508;28;20029;-79
2022/09/25 05:37:46;;;;;;;30.35;19.55;;;;;;;;;;5042944;28;20515;-77
2022/09/25 05:40:16;;;;;;;36.47;19.58;;;;;;;;;;5036925;28;20108;-79
2022/09/25 05:42:43;;;;;;;33.28;18.63;;;;;;;;;;5050303;28;20156;-77
2022/09/25 05:45:10;;;;;;;32.55;20.05;;;;;;;;;;5037990;28;20025;-77
2022/09/25 05:47:36;;;;;;;34.13;18.50;;;;;;;;;;5049175;28;20033;-77
2022/09/25 05:50:03;;;;;;;33.45;19.65;;;;;;;;;;5036600;28;20485;-75
2022/09/25 05:52:30;;;;;;;35.10;19.55;;;;;;;;;;5039935;28;20036;-77
2022/09/25 05:54:55;;;;;;;33.10;18.75;;;;;;;;;;5037866;28;20053;-78
2022/09/25 05:57:21;;;;;;;31.08;19.80;;;;;;;;;;5041455;28;20021;-77
2022/09/25 05:59:48;;;;;;;33.40;19.92;;;;;;;;;;5020737;28;20083;-77
2022/09/25 06:02:14;;;;;;;33.15;20.35;;;;;;;;;;5041574;28;20759;-77
2022/09/25 06:04:40;;;;;;;36.30;20.30;;;;;;;;;;5037866;28;20072;-77
2022/09/25 06:07:05;;;;;;;36.17;20.63;;;;;;;;;;5043377;28;20064;-77
2022/09/25 06:09:31;;;;;;;38.47;19.25;;;;;;;;;;5034661;28;20082;-77
2022/09/25 06:11:57;;;;;;;29.65;18.50;;;;;;;;;;5014236;28;20041;-78
2022/09/25 06:14:22;;;;;;;34.03;19.05;;;;;;;;;;5035359;28;20029;-77
2022/09/25 06:16:49;;;;;;;32.95;20.98;;;;;;;;;;5037908;28;20029;-76
2022/09/25 06:19:16;;;;;;;30.90;17.63;;;;;;;;;;5039791;28;20112;-77
2022/09/25 06:21:42;;;;;;;36.78;19.95;;;;;;;;;;5037790;28;20037;-77
2022/09/25 06:24:09;;;;;;;32.28;19.52;;;;;;;;;;5029763;28;20378;-78
2022/09/25 06:26:35;;;;;;;32.03;18.23;;;;;;;;;;5036564;28;20677;-77
2022/09/25 06:29:02;;;;;;;27.10;16.88;;;;;;;;;;5046143;28;20028;-79
2022/09/25 06:31:28;;;;;;;26.65;17.15;;;;;;;;;;5034535;28;20097;-78
2022/09/25 06:33:53;;;;;;;27.63;15.40;;;;;;;;;;5035652;28;20122;-78
2022/09/25 06:36:19;;;;;;;25.00;15.35;;;;;;;;;;5042936;28;20033;-77
2022/09/25 06:38:44;;;;;;;33.22;16.80;;;;;;;;;;5035772;28;20550;-77
2022/09/25 06:41:11;;;;;;;31.27;16.42;;;;;;;;;;5047354;28;20020;-78
2022/09/25 06:43:36;;;;;;;24.35;14.77;;;;;;;;;;5002313;28;20141;-77
2022/09/25 06:46:02;;;;;;;32.53;16.48;;;;;;;;;;5035628;28;20075;-77
2022/09/25 06:48:29;;;;;;;24.73;15.35;;;;;;;;;;5039889;28;20033;-78
2022/09/25 06:50:56;;;;;;;22.85;13.88;;;;;;;;;;5042132;28;20044;-77
2022/09/25 06:53:23;;;;;;;24.17;15.02;;;;;;;;;;5042629;28;20112;-79
2022/09/25 06:55:49;;;;;;;27.95;14.98;;;;;;;;;;5034294;28;20656;-78
2022/09/25 06:58:22;;;;;;;24.92;15.25;;;;;;;;;;5040428;28;20037;-78
2022/09/25 07:00:53;;;;;;;18.73;13.20;;;;;;;;;;5036396;28;20059;-78
2022/09/25 07:06:05;;;;;;;21.38;13.40;;;;;;;;;;5040727;28;21151;-79
2022/09/25 07:08:30;;;;;;;22.48;13.20;;;;;;;;;;5043821;28;20086;-78
2022/09/25 07:10:58;;;;;;;22.55;13.38;;;;;;;;;;5022855;28;20040;-79
2022/09/25 07:13:27;;;;;;;22.50;14.50;;;;;;;;;;5040797;28;20049;-79
2022/09/25 07:15:55;;;;;;;21.50;14.57;;;;;;;;;;5034370;28;20025;-78
2022/09/25 07:18:21;;;;;;;21.70;13.98;;;;;;;;;;5043520;28;20102;-78
2022/09/25 07:20:48;;;;;;;21.90;14.82;;;;;;;;;;5036389;28;20032;-78
2022/09/25 07:23:15;;;;;;;19.38;13.35;;;;;;;;;;5048058;28;20034;-78
2022/09/25 07:25:41;;;;;;;22.92;13.48;;;;;;;;;;5041786;28;20450;-79
2022/09/25 07:28:07;;;;;;;19.83;14.43;;;;;;;;;;5058124;28;20036;-78
2022/09/25 07:30:33;;;;;;;27.63;15.15;;;;;;;;;;5039345;28;20041;-79
2022/09/25 07:32:58;;;;;;;22.60;13.70;;;;;;;;;;5043594;28;20059;-78
2022/09/25 07:35:24;;;;;;;25.33;13.45;;;;;;;;;;5041861;28;20037;-78
2022/09/25 07:37:49;;;;;;;18.75;13.43;;;;;;;;;;5033356;28;20129;-79
2022/09/25 07:40:15;;;;;;;20.35;13.20;;;;;;;;;;5033531;28;20052;-78
2022/09/25 07:42:40;;;;;;;26.50;15.25;;;;;;;;;;5022719;28;20033;-77
2022/09/25 07:45:07;;;;;;;26.70;15.18;;;;;;;;;;5024268;28;20373;-79
2022/09/25 07:47:32;;;;;;;22.90;14.70;;;;;;;;;;5049532;28;20030;-79
2022/09/25 07:49:58;;;;;;;20.45;14.45;;;;;;;;;;5037194;28;20029;-78
2022/09/25 07:52:25;;;;;;;20.30;13.90;;;;;;;;;;5039278;28;20041;-79
2022/09/25 07:54:50;;;;;;;20.30;14.27;;;;;;;;;;5036733;28;20045;-78
2022/09/25 07:57:17;;;;;;;22.45;12.63;;;;;;;;;;5027034;28;20354;-80
2022/09/25 07:59:44;;;;;;;20.17;13.48;;;;;;;;;;5019896;28;20030;-79
2022/09/25 08:02:10;;;;;;;21.50;13.30;;;;;;;;;;5039489;28;20029;-78
2022/09/25 08:04:35;;;;;;;23.13;12.98;;;;;;;;;;5020620;28;20478;-79
2022/09/25 08:07:01;;;;;;;22.48;13.98;;;;;;;;;;5034463;28;20419;-78
2022/09/25 08:09:27;;;;;;;21.92;13.60;;;;;;;;;;5022924;28;20490;-78
2022/09/25 08:11:53;;;;;;;22.83;14.18;;;;;;;;;;5021508;28;20048;-78
2022/09/25 08:14:21;;;;;;;28.08;20.63;;;;;;;;;;5027751;28;20026;-79
2022/09/25 08:16:47;;;;;;;21.70;15.27;;;;;;;;;;5038318;28;20049;-79
2022/09/25 08:19:16;;;;;;;17.73;13.02;;;;;;;;;;5040899;28;20061;-80
2022/09/25 08:21:42;;;;;;;16.20;12.93;;;;;;;;;;5035636;28;20042;-79
2022/09/25 08:24:09;;;;;;;19.50;13.38;;;;;;;;;;5020113;28;20474;-79
2022/09/25 08:26:35;;;;;;;19.20;12.25;;;;;;;;;;5038001;28;20156;-78
2022/09/25 08:29:03;;;;;;;23.02;14.00;;;;;;;;;;5035969;28;20041;-78
2022/09/25 08:31:28;;;;;;;21.02;13.63;;;;;;;;;;5037715;28;20576;-78
2022/09/25 08:33:54;;;;;;;20.13;12.93;;;;;;;;;;5024321;28;20037;-78
2022/09/25 08:36:20;;;;;;;22.80;14.93;;;;;;;;;;5025343;28;20058;-80
2022/09/25 08:38:46;;;;;;;23.02;13.90;;;;;;;;;;5036596;28;20497;-79
2022/09/25 08:41:42;;;;;;;28.95;17.95;;;;;;;;;;5039527;28;20452;-80
2022/09/25 08:44:24;;;;;;;21.25;14.98;;;;;;;;;;5043277;28;20033;-78
2022/09/25 08:50:10;;;;;;;21.88;13.77;;;;;;;;;;5044639;28;20063;-79
2022/09/25 08:52:40;;;;;;;18.88;13.85;;;;;;;;;;5037594;28;20048;-79
2022/09/25 08:58:23;;;;;;;25.48;19.20;;;;;;;;;;5042320;28;20032;-79
2022/09/25 09:00:52;;;;;;;20.20;14.05;;;;;;;;;;5046994;28;20384;-79
2022/09/25 09:03:21;;;;;;;23.17;15.45;;;;;;;;;;5029632;28;20033;-79
2022/09/25 09:05:55;;;;;;;22.90;13.95;;;;;;;;;;5036594;28;20021;-79
2022/09/25 09:08:24;;;;;;;23.38;15.05;;;;;;;;;;5051652;28;20469;-80
2022/09/25 09:11:14;;;;;;;19.23;14.38;;;;;;;;;;5037371;28;20095;-79
2022/09/25 09:13:54;;;;;;;22.75;15.23;;;;;;;;;;5037049;28;20083;-79
2022/09/25 09:16:27;;;;;;;21.10;13.45;;;;;;;;;;5037189;28;20026;-78
2022/09/25 09:18:54;;;;;;;17.88;13.10;;;;;;;;;;5044467;28;20052;-80
2022/09/25 09:21:27;;;;;;;19.90;14.70;;;;;;;;;;5035804;28;20055;-79
2022/09/25 09:24:22;;;;;;;21.83;14.75;;;;;;;;;;5037860;28;20036;-78
2022/09/25 09:27:12;;;;;;;19.15;12.82;;;;;;;;;;5043562;28;20681;-78
2022/09/25 09:29:59;;;;;;;23.67;15.05;;;;;;;;;;5042376;28;20116;-78
2022/09/25 09:32:52;;;;;;;23.42;14.05;;;;;;;;;;5039485;28;20461;-78
2022/09/25 09:35:40;;;;;;;18.73;14.10;;;;;;;;;;5048626;28;20509;-77
2022/09/25 09:38:41;;;;;;;25.77;15.63;;;;;;;;;;5038055;28;20072;-77
2022/09/25 09:41:32;;;;;;;20.00;14.50;;;;;;;;;;5042087;28;20130;-76
2022/09/25 09:44:32;;;;;;;24.90;15.50;;;;;;;;;;5042885;28;20055;-78
2022/09/25 09:47:16;;;;;;;18.17;13.00;;;;;;;;;;5041900;28;20063;-77
2022/09/25 09:49:51;;;;;;;17.90;13.07;;;;;;;;;;5041183;28;20049;-76
2022/09/25 09:52:24;;;;;;;20.38;12.80;;;;;;;;;;5035497;28;20030;-77
2022/09/25 09:54:55;;;;;;;15.05;11.70;;;;;;;;;;5043788;28;20025;-78
2022/09/25 09:57:29;;;;;;;33.78;13.85;;;;;;;;;;5049761;28;20469;-77
2022/09/25 10:00:04;;;;;;;15.40;12.27;;;;;;;;;;5036958;28;20062;-78
2022/09/25 10:02:39;;;;;;;23.25;13.77;;;;;;;;;;5041646;28;20044;-77
2022/09/25 10:05:57;;;;;;;21.95;13.38;;;;;;;;;;5043924;28;20060;-77
2022/09/25 10:08:22;;;;;;;18.27;14.15;;;;;;;;;;4971688;28;20497;-78
2022/09/25 10:10:53;;;;;;;16.85;12.30;;;;;;;;;;5040998;28;20116;-77
2022/09/25 10:13:39;;;;;;;22.60;13.82;;;;;;;;;;5036707;28;20370;-77
2022/09/25 10:16:13;;;;;;;22.02;14.93;;;;;;;;;;5039007;28;20114;-76
2022/09/25 10:19:18;;;;;;;21.92;14.95;;;;;;;;;;5039319;28;20021;-76
2022/09/25 10:21:49;;;;;;;17.60;13.75;;;;;;;;;;5042592;28;20040;-76
2022/09/25 10:24:52;;;;;;;16.75;14.07;;;;;;;;;;5044183;28;20041;-77
2022/09/25 10:27:27;;;;;;;20.65;13.48;;;;;;;;;;5001160;28;20076;-77
2022/09/25 10:30:08;;;;;;;20.75;13.43;;;;;;;;;;5033401;28;20037;-77
2022/09/25 10:33:05;;;;;;;16.37;12.70;;;;;;;;;;5038778;28;20120;-76
2022/09/25 10:35:37;;;;;;;21.05;12.07;;;;;;;;;;5040955;28;20450;-78
2022/09/25 10:38:04;;;;;;;18.17;12.27;;;;;;;;;;5047073;28;20080;-78
2022/09/25 10:40:36;;;;;;;15.23;12.05;;;;;;;;;;5037796;28;20357;-76
2022/09/25 10:43:05;;;;;;;15.63;11.57;;;;;;;;;;5037642;28;20038;-76
2022/09/25 10:45:34;;;;;;;19.92;12.90;;;;;;;;;;5038515;28;20031;-79
2022/09/25 10:50:45;;;;;;;13.13;10.75;;;;;;;;;;5042050;28;20408;-77
2022/09/25 10:53:30;;;;;;;16.10;12.50;;;;;;;;;;5036425;28;20087;-76
2022/09/25 10:56:08;;;;;;;16.85;13.25;;;;;;;;;;5036493;28;20041;-76
2022/09/25 10:59:07;;;;;;;24.92;13.00;;;;;;;;;;5038765;28;20393;-77
2022/09/25 11:01:42;;;;;;;14.93;11.75;;;;;;;;;;5005275;28;20064;-78
2022/09/25 11:04:27;;;;;;;17.85;12.13;;;;;;;;;;5021110;28;20032;-77
2022/09/25 11:07:00;;;;;;;15.52;11.70;;;;;;;;;;5037273;28;20025;-78
2022/09/25 11:09:28;;;;;;;15.00;12.05;;;;;;;;;;5041577;28;20037;-77
2022/09/25 11:12:06;;;;;;;18.30;12.77;;;;;;;;;;5018315;28;20036;-77
2022/09/25 11:14:34;;;;;;;21.52;15.25;;;;;;;;;;5021699;28;20032;-77
2022/09/25 11:17:08;;;;;;;21.38;14.05;;;;;;;;;;5052469;28;20025;-77
2022/09/25 11:19:35;;;;;;;17.85;13.05;;;;;;;;;;5040792;28;20630;-77
2022/09/25 11:22:33;;;;;;;14.57;12.10;;;;;;;;;;5036677;28;20025;-77
2022/09/25 11:25:21;;;;;;;21.25;16.27;;;;;;;;;;5037090;28;20026;-79
2022/09/25 11:27:54;;;;;;;15.60;11.65;;;;;;;;;;5035941;28;20536;-77
2022/09/25 11:30:21;;;;;;;14.73;12.27;;;;;;;;;;5038242;28;20056;-77
2022/09/25 11:33:25;;;;;;;16.20;12.02;;;;;;;;;;5043879;28;20031;-77
2022/09/25 11:35:53;;;;;;;13.20;10.68;;;;;;;;;;5008680;28;20125;-78
2022/09/25 11:41:39;;;;;;;16.73;10.07;;;;;;;;;;5033394;28;20044;-77
2022/09/25 11:44:42;;;;;;;13.50;10.30;;;;;;;;;;5032898;28;20025;-77
2022/09/25 11:47:20;;;;;;;13.68;9.10;;;;;;;;;;5047215;28;20038;-78
2022/09/25 11:49:50;;;;;;;16.15;11.00;;;;;;;;;;5051424;28;20029;-77
2022/09/25 11:52:58;;;;;;;15.10;9.00;;;;;;;;;;5035903;28;20100;-77
2022/09/25 11:55:40;;;;;;;19.08;8.57;;;;;;;;;;5023765;28;20045;-79
2022/09/25 11:58:13;;;;;;;;;;;;;;;;;;5039339;28;20022;-80
2022/09/25 12:00:53;;;;;;;15.70;9.38;;;;;;;;;;5032349;28;20514;-80
2022/09/25 12:03:59;;;;;;;13.70;8.52;;;;;;;;;;5038942;28;20036;-79
2022/09/25 12:06:44;;;;;;;11.82;9.15;;;;;;;;;;5046902;28;20083;-79
2022/09/25 12:09:41;;;;;;;11.25;8.15;;;;;;;;;;5052322;28;20451;-80
2022/09/25 12:12:26;;;;;;;12.68;8.65;;;;;;;;;;5045108;28;20042;-80
2022/09/25 12:15:13;;;;;;;14.32;8.80;;;;;;;;;;5044749;28;20064;-79
2022/09/25 12:17:48;;;;;;;12.55;8.77;;;;;;;;;;5044406;28;20025;-79
2022/09/25 12:20:45;;;;;;;14.45;8.88;;;;;;;;;;5046112;28;20044;-79
2022/09/25 12:23:28;;;;;;;12.25;8.70;;;;;;;;;;5050491;28;20024;-80
2022/09/25 12:26:13;;;;;;;13.10;8.95;;;;;;;;;;5043119;28;20059;-80
2022/09/25 12:29:09;;;;;;;11.63;8.88;;;;;;;;;;5053575;28;20477;-80
2022/09/25 12:31:51;;;;;;;15.48;7.88;;;;;;;;;;5051129;28;20093;-80
2022/09/25 12:34:33;;;;;;;10.98;8.25;;;;;;;;;;5039424;28;20365;-79
2022/09/25 12:37:23;;;;;;;10.20;8.07;;;;;;;;;;5043864;28;20025;-79
2022/09/25 12:39:57;;;;;;;11.35;8.55;;;;;;;;;;5015233;28;20046;-80
2022/09/25 12:42:40;;;;;;;18.55;9.55;;;;;;;;;;5021795;28;20030;-81
2022/09/25 12:45:13;;;;;;;13.52;8.77;;;;;;;;;;5005438;28;20033;-81
2022/09/25 12:47:45;;;;;;;9.35;7.90;;;;;;;;;;5004121;28;20098;-80
2022/09/25 12:50:24;;;;;;;13.70;8.82;;;;;;;;;;5021531;28;20061;-80
2022/09/25 12:53:04;;;;;;;11.13;8.10;;;;;;;;;;5021333;28;20033;-80
2022/09/25 12:55:51;;;;;;;9.05;7.55;;;;;;;;;;5020325;28;20584;-80
2022/09/25 12:58:23;;;;;;;11.50;8.82;;;;;;;;;;5021170;28;20025;-80
2022/09/25 13:01:00;;;;;;;13.73;7.40;;;;;;;;;;5016841;28;20026;-80
2022/09/25 13:03:42;;;;;;;9.88;7.10;;;;;;;;;;5020731;28;20061;-80
2022/09/25 13:06:37;;;;;;;11.32;7.93;;;;;;;;;;4992839;28;20030;-79
2022/09/25 13:09:11;;;;;;;10.40;7.43;;;;;;;;;;4967046;28;20035;-79
2022/09/25 13:11:44;;;;;;;14.70;8.07;;;;;;;;;;4999320;28;20105;-81
2022/09/25 13:14:22;;;;;;;9.02;7.22;;;;;;;;;;5009005;28;20034;-79
2022/09/25 13:16:48;;;;;;;10.32;7.07;;;;;;;;;;5018518;28;20040;-80
2022/09/25 13:19:26;;;;;;;9.82;6.25;;;;;;;;;;5014108;28;20117;-81
2022/09/25 13:22:19;;;;;;;9.98;6.15;;;;;;;;;;4998790;28;20033;-79
2022/09/25 13:24:50;;;;;;;10.77;6.82;;;;;;;;;;5003218;28;20038;-82
2022/09/25 13:27:20;;;;;;;10.25;7.03;;;;;;;;;;5005628;28;20032;-79
2022/09/25 13:29:54;;;;;;;10.98;6.97;;;;;;;;;;4998215;28;20040;-80
2022/09/25 13:32:22;;;;;;;10.40;7.15;;;;;;;;;;4998906;28;20114;-80
2022/09/25 13:34:53;;;;;;;10.68;7.28;;;;;;;;;;5002162;28;20028;-80
2022/09/25 13:37:25;;;;;;;8.00;6.68;;;;;;;;;;5002694;28;20018;-80
2022/09/25 13:42:45;;;;;;;12.73;6.45;;;;;;;;;;5014763;28;20095;-80
2022/09/25 13:45:25;;;;;;;14.63;7.00;;;;;;;;;;5030540;28;20100;-80
2022/09/25 13:48:02;;;;;;;7.32;5.90;;;;;;;;;;5042842;28;20128;-80
2022/09/25 13:50:43;;;;;;;8.07;5.80;;;;;;;;;;5042504;28;20056;-80
2022/09/25 13:53:19;;;;;;;8.15;5.88;;;;;;;;;;5038023;28;20025;-80
2022/09/25 13:55:53;;;;;;;6.55;4.97;;;;;;;;;;5044051;28;20037;-80
2022/09/25 13:58:23;;;;;;;9.82;5.25;;;;;;;;;;5023174;28;20028;-79
2022/09/25 14:00:56;;;;;;;6.90;4.70;;;;;;;;;;5037001;28;20033;-80
2022/09/25 14:03:43;;;;;;;10.15;5.32;;;;;;;;;;5046974;28;20052;-81
2022/09/25 14:06:31;;;;;;;7.22;5.05;;;;;;;;;;5039184;28;20068;-79
2022/09/25 14:08:59;;;;;;;8.57;5.60;;;;;;;;;;5044760;28;20057;-80
2022/09/25 14:11:34;;;;;;;8.13;5.68;;;;;;;;;;5043481;28;20122;-80
2022/09/25 14:14:04;;;;;;;7.32;5.07;;;;;;;;;;5037698;28;20048;-80
2022/09/25 14:16:39;;;;;;;9.10;5.05;;;;;;;;;;5036873;28;20464;-80
2022/09/25 14:19:07;;;;;;;6.40;4.97;;;;;;;;;;5043012;28;20017;-78
2022/09/25 14:21:33;;;;;;;7.40;5.05;;;;;;;;;;5044160;28;20048;-79
2022/09/25 14:24:22;;;;;;;8.75;4.38;;;;;;;;;;5022150;28;20024;-80
2022/09/25 14:26:50;;;;;;;8.40;4.75;;;;;;;;;;5042024;28;20053;-80
2022/09/25 14:29:21;;;;;;;7.40;4.45;;;;;;;;;;5040559;28;20027;-80
2022/09/25 14:32:11;;;;;;;7.28;4.13;;;;;;;;;;5036727;28;20030;-80
2022/09/25 14:34:54;;;;;;;6.45;4.50;;;;;;;;;;5040651;28;20025;-81
2022/09/25 14:38:06;;;;;;;8.48;6.03;;;;;;;;;;5040647;28;20033;-80
2022/09/25 14:41:03;;;;;;;7.15;4.97;;;;;;;;;;5013546;28;20116;-80
2022/09/25 14:43:40;;;;;;;9.00;5.40;;;;;;;;;;5041046;28;20346;-80
2022/09/25 14:46:19;;;;;;;7.65;5.72;;;;;;;;;;5034940;28;20026;-77
2022/09/25 14:48:55;;;;;;;6.20;4.30;;;;;;;;;;5040333;28;20029;-77
2022/09/25 14:51:29;;;;;;;7.05;4.75;;;;;;;;;;5040169;28;20150;-79
2022/09/25 14:54:02;;;;;;;5.22;4.72;;;;;;;;;;5039719;28;20032;-78
2022/09/25 14:56:33;;;;;;;6.68;4.65;;;;;;;;;;5036280;28;20044;-79
2022/09/25 14:59:06;;;;;;;12.25;5.22;;;;;;;;;;5036569;28;20101;-78
2022/09/25 15:01:32;;;;;;;30.45;7.53;;;;;;;;;;5042279;28;20112;-78
2022/09/25 15:04:02;;;;;;;8.93;4.85;;;;;;;;;;5036039;28;20113;-79
2022/09/25 15:06:31;;;;;;;10.23;6.10;;;;;;;;;;5029095;28;20485;-78
2022/09/25 15:09:01;;;;;;;6.70;4.68;;;;;;;;;;5034988;28;20115;-78
2022/09/25 15:11:41;;;;;;;8.15;4.85;;;;;;;;;;5018049;28;20509;-78
2022/09/25 15:14:19;;;;;;;12.23;6.15;;;;;;;;;;5035603;28;20034;-79
2022/09/25 15:19:44;;;;;;;8.45;4.72;;;;;;;;;;5036154;28;20400;-78
2022/09/25 15:22:38;;;;;;;5.40;4.78;;;;;;;;;;5035633;28;20029;-79
2022/09/25 15:25:06;;;;;;;8.50;5.80;;;;;;;;;;5031630;28;20045;-77